createdAt,value
2019-01-21T00:01:11.034Z,51.40
2019-01-21T00:03:40.255Z,53.57
2019-01-21T00:06:10.803Z,54.10
2019-01-21T00:08:40.537Z,51.70
2019-01-21T00:11:09.918Z,52.00
2019-01-21T00:13:39.256Z,50.93
2019-01-21T00:16:08.284Z,49.00
2019-01-21T00:18:37.333Z,48.30
2019-01-21T00:21:06.358Z,49.43
2019-01-21T00:23:35.350Z,52.53
2019-01-21T00:26:05.721Z,51.67
2019-01-21T00:28:35.776Z,48.37
2019-01-21T00:31:06.016Z,54.00
2019-01-21T00:33:35.480Z,50.93
2019-01-21T00:36:05.290Z,50.20
2019-01-21T00:38:35.046Z,53.10
2019-01-21T00:41:05.712Z,49.07
2019-01-21T00:43:36.146Z,50.13
2019-01-21T00:46:06.027Z,50.53
2019-01-21T00:48:35.039Z,51.40
2019-01-21T00:51:04.099Z,51.10
2019-01-21T00:53:33.897Z,52.90
2019-01-21T00:56:02.840Z,45.10
2019-01-21T00:58:32.648Z,49.47
2019-01-21T01:01:02.111Z,47.40
2019-01-21T01:03:31.595Z,48.63
2019-01-21T01:06:02.313Z,48.27
2019-01-21T01:08:31.841Z,50.27
2019-01-21T01:11:01.852Z,50.40
2019-01-21T01:13:31.258Z,46.23
2019-01-21T01:16:00.705Z,49.33
2019-01-21T01:18:29.973Z,52.83
2019-01-21T01:20:59.287Z,53.57
2019-01-21T01:23:28.981Z,45.87
2019-01-21T01:25:58.567Z,50.70
2019-01-21T01:28:28.630Z,50.20
2019-01-21T01:30:58.981Z,46.17
2019-01-21T01:33:28.474Z,52.30
2019-01-21T01:35:58.308Z,51.77
2019-01-21T01:38:27.788Z,52.40
2019-01-21T01:40:56.850Z,47.33
2019-01-21T01:43:29.423Z,41.90
2019-01-21T01:45:58.788Z,46.70
2019-01-21T01:48:28.527Z,48.83
2019-01-21T01:50:58.471Z,46.00
2019-01-21T01:53:29.710Z,51.00
2019-01-21T01:55:59.594Z,52.07
2019-01-21T01:58:28.639Z,47.00
2019-01-21T02:00:58.437Z,47.97
2019-01-21T02:03:27.560Z,47.60
2019-01-21T02:05:57.127Z,52.83
2019-01-21T02:08:28.899Z,46.37
2019-01-21T02:11:01.728Z,52.27
2019-01-21T02:13:31.486Z,50.97
2019-01-21T02:16:01.889Z,51.87
2019-01-21T02:18:31.734Z,50.20
2019-01-21T02:21:05.316Z,49.67
2019-01-21T02:23:39.645Z,49.57
2019-01-21T02:26:20.243Z,46.70
2019-01-21T02:29:09.403Z,47.97
2019-01-21T02:32:01.709Z,50.43
2019-01-21T02:35:24.793Z,47.63
2019-01-21T02:38:18.297Z,48.30
2019-01-21T02:41:20.558Z,51.00
2019-01-21T02:44:24.537Z,54.33
2019-01-21T02:47:42.690Z,47.83
2019-01-21T02:50:51.718Z,48.33
2019-01-21T02:53:39.650Z,55.63
2019-01-21T02:56:38.866Z,55.17
2019-01-21T02:59:54.388Z,51.77
2019-01-21T03:03:09.830Z,48.17
2019-01-21T03:06:16.090Z,49.07
2019-01-21T03:09:38.051Z,53.00
2019-01-21T03:12:45.315Z,44.20
2019-01-21T03:15:53.249Z,51.70
2019-01-21T03:19:11.425Z,51.00
2019-01-21T03:22:13.789Z,53.97
2019-01-21T03:25:13.498Z,49.60
2019-01-21T03:28:26.882Z,51.90
2019-01-21T03:31:30.043Z,52.43
2019-01-21T03:34:17.705Z,49.03
2019-01-21T03:37:23.810Z,49.93
2019-01-21T03:40:32.822Z,49.90
2019-01-21T03:43:44.807Z,54.83
2019-01-21T03:46:52.000Z,49.63
2019-01-21T03:49:32.747Z,46.77
2019-01-21T03:52:34.705Z,45.77
2019-01-21T03:55:09.141Z,48.53
2019-01-21T03:58:07.754Z,50.73
2019-01-21T04:00:47.465Z,46.90
2019-01-21T04:04:10.338Z,44.27
2019-01-21T04:06:51.773Z,46.30
2019-01-21T04:10:21.871Z,51.60
2019-01-21T04:13:26.601Z,51.20
2019-01-21T04:16:38.401Z,47.60
2019-01-21T04:19:32.711Z,47.73
2019-01-21T04:22:27.588Z,46.33
2019-01-21T04:25:34.300Z,47.13
2019-01-21T04:28:16.166Z,53.67
2019-01-21T04:31:27.150Z,52.13
2019-01-21T04:34:28.218Z,45.13
2019-01-21T04:37:24.696Z,49.83
2019-01-21T04:40:07.615Z,49.37
2019-01-21T04:42:55.406Z,55.07
2019-01-21T04:46:15.739Z,51.00
2019-01-21T04:49:02.601Z,44.60
2019-01-21T04:52:12.572Z,46.00
2019-01-21T04:54:59.713Z,46.47
2019-01-21T04:58:22.393Z,45.80
2019-01-21T05:01:53.947Z,49.23
2019-01-21T05:04:49.315Z,48.93
2019-01-21T05:07:51.925Z,49.93
2019-01-21T05:10:57.373Z,45.60
2019-01-21T05:13:49.781Z,47.77
2019-01-21T05:17:06.087Z,50.37
2019-01-21T05:19:49.742Z,47.73
2019-01-21T05:22:44.960Z,44.17
2019-01-21T05:25:42.633Z,43.50
2019-01-21T05:28:36.813Z,49.23
2019-01-21T05:31:15.666Z,45.73
2019-01-21T05:34:15.062Z,48.17
2019-01-21T05:37:43.624Z,47.30
2019-01-21T05:40:56.296Z,47.33
2019-01-21T05:44:03.548Z,47.43
2019-01-21T05:47:10.204Z,46.87
2019-01-21T05:50:26.583Z,43.10
2019-01-21T05:54:01.265Z,46.03
2019-01-21T05:57:16.238Z,52.70
2019-01-21T06:00:23.782Z,48.77
2019-01-21T06:03:08.334Z,49.23
2019-01-21T06:06:03.381Z,52.43
2019-01-21T06:09:00.278Z,42.87
2019-01-21T06:11:58.631Z,47.73
2019-01-21T06:15:09.502Z,51.27
2019-01-21T06:18:23.785Z,46.00
2019-01-21T06:21:46.669Z,47.37
2019-01-21T06:24:25.005Z,49.57
2019-01-21T06:27:34.574Z,52.83
2019-01-21T06:30:47.193Z,53.10
2019-01-21T06:34:01.536Z,47.50
2019-01-21T06:36:54.667Z,47.37
2019-01-21T06:40:00.392Z,51.73
2019-01-21T06:43:04.569Z,51.93
2019-01-21T06:46:27.198Z,49.17
2019-01-21T06:49:44.332Z,47.83
2019-01-21T06:52:48.425Z,52.53
2019-01-21T06:55:49.254Z,50.23
2019-01-21T06:58:53.566Z,50.87
2019-01-21T07:02:17.642Z,50.70
2019-01-21T07:05:24.763Z,50.77
2019-01-21T07:08:41.902Z,50.43
2019-01-21T07:11:29.998Z,53.27
2019-01-21T07:14:34.453Z,51.33
2019-01-21T07:17:45.457Z,56.73
2019-01-21T07:20:50.597Z,49.03
2019-01-21T07:23:55.803Z,50.67
2019-01-21T07:26:47.262Z,47.53
2019-01-21T07:29:48.329Z,45.10
2019-01-21T07:32:52.230Z,52.70
2019-01-21T07:35:41.950Z,52.37
2019-01-21T07:39:03.777Z,47.63
2019-01-21T07:42:13.387Z,51.77
2019-01-21T07:45:16.640Z,53.23
2019-01-21T07:48:17.068Z,52.10
2019-01-21T07:51:17.785Z,51.83
2019-01-21T07:54:24.633Z,51.30
2019-01-21T07:57:37.694Z,50.20
2019-01-21T08:00:39.165Z,51.83
2019-01-21T08:03:33.465Z,48.33
2019-01-21T08:06:45.316Z,49.93
2019-01-21T08:09:41.838Z,49.70
2019-01-21T08:12:56.945Z,46.67
2019-01-21T08:15:53.548Z,47.83
2019-01-21T08:18:59.495Z,48.93
2019-01-21T08:21:42.773Z,45.23
2019-01-21T08:24:55.055Z,54.77
2019-01-21T08:27:57.600Z,51.60
2019-01-21T08:31:03.943Z,53.97
2019-01-21T08:34:19.714Z,52.33
2019-01-21T08:37:23.458Z,45.90
2019-01-21T08:40:13.444Z,52.90
2019-01-21T08:43:31.783Z,50.93
2019-01-21T08:46:38.014Z,43.87
2019-01-21T08:49:33.581Z,55.63
2019-01-21T08:52:32.606Z,53.83
2019-01-21T08:56:03.035Z,48.73
2019-01-21T08:59:25.421Z,52.60
2019-01-21T09:02:36.371Z,51.87
2019-01-21T09:05:41.617Z,50.13
2019-01-21T09:08:53.347Z,47.77
2019-01-21T09:12:03.417Z,53.70
2019-01-21T09:15:15.173Z,48.20
2019-01-21T09:17:59.317Z,49.97
2019-01-21T09:20:55.432Z,51.80
2019-01-21T09:23:46.796Z,52.50
2019-01-21T09:26:29.736Z,49.40
2019-01-21T09:29:21.456Z,51.33
2019-01-21T09:32:10.591Z,49.87
2019-01-21T09:35:00.362Z,46.10
2019-01-21T09:38:27.249Z,48.80
2019-01-21T09:41:50.246Z,47.40
2019-01-21T09:44:28.972Z,45.60
2019-01-21T09:46:56.511Z,47.40
2019-01-21T09:49:24.117Z,42.73
2019-01-21T09:52:16.196Z,45.30
2019-01-21T09:54:47.145Z,44.73
2019-01-21T09:57:26.673Z,48.00
2019-01-21T10:00:00.809Z,49.03
2019-01-21T10:02:53.631Z,48.60
2019-01-21T10:05:27.478Z,50.73
2019-01-21T10:08:34.018Z,43.57
2019-01-21T10:11:46.678Z,45.17
2019-01-21T10:14:47.766Z,42.77
2019-01-21T10:17:56.613Z,49.33
2019-01-21T10:21:09.100Z,48.13
2019-01-21T10:24:38.659Z,47.00
2019-01-21T10:27:45.269Z,45.60
2019-01-21T10:30:57.125Z,44.77
2019-01-21T10:33:55.016Z,38.03
2019-01-21T10:36:55.342Z,47.73
2019-01-21T10:40:19.933Z,42.17
2019-01-21T10:43:22.338Z,46.97
2019-01-21T10:46:09.798Z,43.63
2019-01-21T10:49:08.414Z,45.17
2019-01-21T10:52:28.140Z,49.57
2019-01-21T10:55:39.783Z,48.83
2019-01-21T10:58:21.028Z,50.57
2019-01-21T11:01:45.156Z,44.10
2019-01-21T11:04:50.779Z,43.27
2019-01-21T11:07:42.834Z,47.07
2019-01-21T11:10:50.192Z,45.60
2019-01-21T11:13:40.264Z,43.60
2019-01-21T11:16:34.685Z,47.13
2019-01-21T11:19:47.214Z,46.47
2019-01-21T11:22:42.144Z,40.73
2019-01-21T11:25:55.646Z,44.83
2019-01-21T11:28:56.277Z,48.80
2019-01-21T11:31:38.670Z,41.73
2019-01-21T11:34:43.134Z,49.80
2019-01-21T11:38:08.083Z,52.53
2019-01-21T11:41:16.387Z,41.43
2019-01-21T11:44:18.210Z,46.60
2019-01-21T11:47:19.219Z,38.83
2019-01-21T11:50:34.967Z,45.67
2019-01-21T11:53:27.267Z,39.00
2019-01-21T11:56:29.351Z,47.40
2019-01-21T11:59:20.529Z,49.70
2019-01-21T12:02:29.737Z,42.87
2019-01-21T12:05:32.185Z,46.00
2019-01-21T12:08:24.240Z,45.13
2019-01-21T12:11:15.950Z,48.33
2019-01-21T12:14:12.228Z,43.33
2019-01-21T12:17:19.228Z,43.17
2019-01-21T12:19:59.311Z,38.40
2019-01-21T12:23:01.787Z,37.10
2019-01-21T12:25:45.799Z,46.63
2019-01-21T12:28:55.091Z,40.73
2019-01-21T12:31:43.196Z,44.93
2019-01-21T12:34:53.415Z,46.60
2019-01-21T12:37:57.736Z,46.57
2019-01-21T12:41:00.630Z,41.83
2019-01-21T12:43:45.434Z,46.20
2019-01-21T12:46:35.850Z,45.53
2019-01-21T12:49:41.320Z,44.77
2019-01-21T12:52:47.228Z,40.83
2019-01-21T12:55:33.189Z,37.83
2019-01-21T12:58:43.796Z,45.80
2019-01-21T13:01:25.224Z,43.83
2019-01-21T13:04:14.124Z,37.53
2019-01-21T13:06:49.160Z,42.53
2019-01-21T13:09:58.576Z,40.80
2019-01-21T13:13:27.466Z,41.00
2019-01-21T13:16:35.339Z,43.53
2019-01-21T13:19:48.774Z,36.70
2019-01-21T13:22:51.437Z,42.90
2019-01-21T13:25:56.268Z,41.40
2019-01-21T13:28:41.452Z,41.50
2019-01-21T13:31:41.637Z,37.70
2019-01-21T13:34:43.610Z,40.20
2019-01-21T13:37:43.868Z,37.60
2019-01-21T13:41:04.786Z,39.97
2019-01-21T13:44:08.946Z,40.97
2019-01-21T13:47:09.441Z,40.70
2019-01-21T13:50:10.646Z,39.37
2019-01-21T13:53:17.258Z,40.33
2019-01-21T13:56:06.183Z,42.20
2019-01-21T13:59:24.603Z,41.23
2019-01-21T14:02:29.284Z,36.50
2019-01-21T14:05:30.881Z,38.70
2019-01-21T14:08:41.349Z,43.20
2019-01-21T14:11:27.241Z,38.43
2019-01-21T14:14:05.471Z,40.57
2019-01-21T14:17:28.001Z,43.43
2019-01-21T14:20:20.317Z,33.63
2019-01-21T14:23:38.749Z,37.93
2019-01-21T14:26:47.628Z,42.27
2019-01-21T14:29:33.094Z,37.03
2019-01-21T14:32:23.097Z,35.60
2019-01-21T14:35:48.982Z,35.20
2019-01-21T14:39:15.100Z,40.37
2019-01-21T14:42:20.578Z,40.47
2019-01-21T14:45:42.449Z,34.50
2019-01-21T14:48:44.005Z,40.20
2019-01-21T14:51:52.820Z,35.87
2019-01-21T14:54:55.184Z,37.27
2019-01-21T14:57:51.003Z,35.77
2019-01-21T15:01:03.641Z,43.43
2019-01-21T15:04:04.409Z,40.63
2019-01-21T15:07:02.152Z,33.77
2019-01-21T15:09:59.388Z,35.13
2019-01-21T15:13:19.454Z,36.47
2019-01-21T15:16:22.820Z,40.70
2019-01-21T15:19:26.082Z,36.93
2019-01-21T15:22:42.568Z,40.40
2019-01-21T15:25:49.798Z,37.63
2019-01-21T15:28:51.474Z,40.70
2019-01-21T15:32:01.118Z,36.87
2019-01-21T15:35:09.244Z,41.97
2019-01-21T15:38:37.219Z,38.47
2019-01-21T15:41:53.821Z,41.07
2019-01-21T15:44:54.881Z,39.27
2019-01-21T15:47:56.982Z,38.60
2019-01-21T15:51:05.369Z,38.50
2019-01-21T15:54:14.114Z,43.53
2019-01-21T15:57:24.236Z,39.27
2019-01-21T16:00:38.938Z,42.33
2019-01-21T16:03:44.261Z,44.70
2019-01-21T16:06:33.548Z,38.43
2019-01-21T16:09:47.163Z,39.00
2019-01-21T16:12:56.533Z,45.60
2019-01-21T16:15:52.092Z,39.50
2019-01-21T16:18:28.788Z,39.53
2019-01-21T16:21:40.488Z,44.13
2019-01-21T16:24:47.920Z,38.37
2019-01-21T16:28:02.323Z,40.63
2019-01-21T16:30:55.571Z,40.67
2019-01-21T16:34:11.633Z,43.73
2019-01-21T16:37:23.272Z,50.40
2019-01-21T16:40:23.378Z,45.40
2019-01-21T16:42:53.207Z,41.60
2019-01-21T16:45:22.870Z,43.70
2019-01-21T16:47:53.464Z,40.47
2019-01-21T16:50:22.642Z,41.93
2019-01-21T16:52:52.218Z,36.33
2019-01-21T16:55:21.343Z,37.00
2019-01-21T16:57:52.086Z,46.10
2019-01-21T17:00:21.457Z,40.93
2019-01-21T17:03:09.736Z,44.53
2019-01-21T17:05:38.792Z,40.70
2019-01-21T17:08:08.226Z,44.58
2019-01-21T17:10:39.343Z,44.83
2019-01-21T17:13:09.067Z,44.80
2019-01-21T17:15:38.258Z,44.63
2019-01-21T17:18:07.822Z,39.03
2019-01-21T17:20:37.209Z,44.20
2019-01-21T17:23:06.704Z,43.67
2019-01-21T17:25:36.191Z,42.13
2019-01-21T17:28:05.814Z,45.20
2019-01-21T17:30:35.210Z,42.20
2019-01-21T17:33:05.273Z,48.17
2019-01-21T17:35:34.713Z,45.00
2019-01-21T17:38:03.965Z,50.37
2019-01-21T17:40:41.133Z,46.93
2019-01-21T17:43:10.558Z,42.90
2019-01-21T17:45:40.004Z,43.97
2019-01-21T17:48:09.494Z,42.90
2019-01-21T17:50:38.588Z,38.33
2019-01-21T17:53:08.342Z,42.47
2019-01-21T17:55:37.506Z,44.97
2019-01-21T17:58:07.277Z,47.10
2019-01-21T18:00:36.393Z,46.27
2019-01-21T18:03:05.822Z,42.67
2019-01-21T18:05:35.567Z,44.73
2019-01-21T18:08:04.870Z,48.83
2019-01-21T18:10:33.974Z,48.73
2019-01-21T18:13:03.877Z,52.40
2019-01-21T18:15:33.264Z,46.47
2019-01-21T18:18:03.659Z,46.30
2019-01-21T18:20:32.738Z,47.53
2019-01-21T18:23:02.872Z,45.00
2019-01-21T18:25:33.074Z,47.93
2019-01-21T18:28:02.639Z,47.83
2019-01-21T18:30:32.459Z,45.90
2019-01-21T18:33:01.983Z,44.70
2019-01-21T18:35:32.089Z,49.00
2019-01-21T18:38:02.024Z,46.50
2019-01-21T18:40:31.576Z,74.57
2019-01-21T18:43:00.772Z,47.37
2019-01-21T18:45:30.312Z,48.97
2019-01-21T18:47:59.650Z,42.60
2019-01-21T18:50:29.309Z,43.13
2019-01-21T18:52:58.457Z,56.57
2019-01-21T18:55:28.044Z,51.77
2019-01-21T18:57:57.384Z,46.87
2019-01-21T19:00:28.405Z,48.50
2019-01-21T19:02:57.561Z,51.93
2019-01-21T19:05:26.977Z,52.63
2019-01-21T19:07:56.553Z,45.03
2019-01-21T19:10:25.633Z,49.70
2019-01-21T19:12:55.888Z,50.50
2019-01-21T19:15:34.121Z,45.33
2019-01-21T19:18:03.643Z,50.70
2019-01-21T19:20:32.907Z,47.27
2019-01-21T19:23:02.431Z,49.97
2019-01-21T19:25:31.710Z,56.07
2019-01-21T19:28:01.007Z,53.70
2019-01-21T19:30:30.082Z,49.80
2019-01-21T19:32:59.036Z,50.20
2019-01-21T19:35:31.158Z,49.13
2019-01-21T19:38:00.225Z,48.03
2019-01-21T19:40:32.242Z,50.57
2019-01-21T19:43:06.866Z,54.80
2019-01-21T19:45:36.156Z,54.47
2019-01-21T19:48:05.569Z,53.97
2019-01-21T19:50:37.510Z,51.63
2019-01-21T19:53:07.292Z,50.27
2019-01-21T19:55:41.478Z,56.17
2019-01-21T19:58:11.729Z,55.27
2019-01-21T20:00:47.601Z,54.83
2019-01-21T20:03:16.708Z,54.47
2019-01-21T20:05:46.353Z,52.23
2019-01-21T20:08:16.331Z,50.50
2019-01-21T20:10:46.558Z,44.17
2019-01-21T20:13:15.792Z,46.37
2019-01-21T20:15:45.461Z,50.97
2019-01-21T20:18:17.119Z,48.93
2019-01-21T20:20:46.161Z,50.33
2019-01-21T20:23:15.509Z,49.67
2019-01-21T20:25:44.837Z,47.53
2019-01-21T20:28:14.324Z,43.63
2019-01-21T20:30:43.537Z,47.13
2019-01-21T20:33:13.445Z,46.57
2019-01-21T20:35:42.855Z,47.33
2019-01-21T20:38:11.878Z,50.23
2019-01-21T20:40:41.987Z,45.23
2019-01-21T20:43:11.437Z,49.37
2019-01-21T20:45:41.346Z,42.93
2019-01-21T20:48:10.689Z,45.00
2019-01-21T20:50:39.759Z,49.97
2019-01-21T20:53:09.926Z,47.47
2019-01-21T20:55:39.552Z,47.27
2019-01-21T20:58:09.151Z,46.73
2019-01-21T21:00:38.574Z,45.93
2019-01-21T21:03:08.198Z,42.97
2019-01-21T21:05:37.919Z,46.40
2019-01-21T21:08:07.016Z,50.33
2019-01-21T21:10:36.052Z,49.77
2019-01-21T21:13:05.228Z,51.43
2019-01-21T21:15:34.408Z,46.87
2019-01-21T21:18:04.328Z,48.23
2019-01-21T21:20:33.709Z,50.87
2019-01-21T21:23:03.193Z,45.33
2019-01-21T21:25:32.509Z,45.13
2019-01-21T21:28:01.983Z,50.50
2019-01-21T21:30:32.724Z,52.60
2019-01-21T21:33:03.885Z,49.07
2019-01-21T21:35:33.993Z,44.83
2019-01-21T21:38:03.109Z,49.50
2019-01-21T21:40:34.566Z,47.63
2019-01-21T21:43:04.274Z,46.73
2019-01-21T21:45:33.839Z,51.97
2019-01-21T21:48:03.292Z,51.80
2019-01-21T21:50:33.686Z,44.17
2019-01-21T21:53:02.742Z,48.03
2019-01-21T21:55:32.173Z,49.13
2019-01-21T21:58:01.832Z,51.90
2019-01-21T22:00:31.410Z,46.33
2019-01-21T22:03:01.253Z,48.47
2019-01-21T22:05:31.096Z,54.90
2019-01-21T22:08:01.064Z,51.57
2019-01-21T22:10:32.709Z,55.47
2019-01-21T22:13:02.303Z,52.20
2019-01-21T22:15:31.802Z,56.97
2019-01-21T22:18:01.224Z,53.27
2019-01-21T22:20:30.640Z,53.60
2019-01-21T22:22:59.913Z,49.17
2019-01-21T22:25:29.293Z,46.47
2019-01-21T22:27:58.708Z,50.63
2019-01-21T22:30:30.009Z,54.13
2019-01-21T22:32:59.569Z,50.67
2019-01-21T22:35:29.696Z,52.63
2019-01-21T22:38:02.885Z,51.97
2019-01-21T22:40:33.062Z,56.43
2019-01-21T22:43:04.572Z,54.70
2019-01-21T22:45:33.775Z,56.50
2019-01-21T22:48:05.190Z,52.17
2019-01-21T22:50:35.178Z,54.27
2019-01-21T22:53:04.321Z,53.00
2019-01-21T22:55:33.769Z,56.17
2019-01-21T22:58:02.987Z,54.43
2019-01-21T23:00:46.332Z,57.90
2019-01-21T23:03:17.476Z,53.30
2019-01-21T23:05:46.952Z,61.80
2019-01-21T23:08:16.443Z,58.93
2019-01-21T23:10:45.718Z,56.53
2019-01-21T23:13:14.998Z,54.10
2019-01-21T23:15:45.901Z,48.87
2019-01-21T23:18:15.392Z,48.63
2019-01-21T23:20:44.848Z,45.33
2019-01-21T23:23:14.975Z,49.27
2019-01-21T23:25:44.314Z,52.53
2019-01-21T23:28:14.189Z,59.23
2019-01-21T23:30:46.571Z,53.30
2019-01-21T23:33:16.131Z,52.83
2019-01-21T23:35:45.829Z,52.27
2019-01-21T23:38:15.232Z,51.87
2019-01-21T23:40:44.547Z,53.20
2019-01-21T23:43:13.931Z,53.50
2019-01-21T23:45:43.404Z,51.30
2019-01-21T23:48:13.383Z,51.73
2019-01-21T23:50:42.970Z,56.40
2019-01-21T23:53:14.180Z,53.40
2019-01-21T23:55:43.604Z,43.23
2019-01-21T23:58:12.677Z,50.00
